Autumn — V7QA6 — position and weather

sailwx.info

Track history (hours):
 
Tides and Currents Weather Stations Pressure Air Temp Water Temp Dewpoint Dewpoint Depression Visibility Wind Speed Wind Dir Waves Ship Positions

Autumn

Last reported at 2017-Dec-15 19:44 UTC. Time now 2017-Dec-15 20:08 UTC.
Position N 40°49' E 014°19'.

Length 129 m; draft 5.5 m.

Type: Tanker. MMSI: 538003323.

Date/timePositionNaut miles runAvg speedWind from/ knotsBaromVisibWave heightAir tempDewpointWater temp
2017-Dec-15 19:44N 40°49' E 014°19'0 0.0
2017-Dec-15 19:29N 40°49' E 014°19'0 0.0
2017-Dec-15 18:14N 40°49' E 014°19'0 0.0
2017-Dec-15 17:17N 40°49' E 014°19'0 0.0
2017-Dec-15 16:50N 40°49' E 014°19'0 0.0
2017-Dec-15 16:17N 40°49' E 014°19'0 0.0
2017-Dec-15 15:50N 40°49' E 014°19'0 0.0
2017-Dec-15 15:23N 40°49' E 014°19'0 0.0
2017-Dec-15 14:50N 40°49' E 014°19'0 0.0
2017-Dec-15 14:23N 40°49' E 014°19'0 0.0
2017-Dec-15 13:50N 40°49' E 014°19'0 0.0
2017-Dec-15 13:26N 40°49' E 014°19'0 0.1
2017-Dec-15 12:56N 40°49' E 014°19'0 0.0
2017-Dec-15 10:44N 40°49' E 014°19'0 0.0
2017-Dec-15 10:26N 40°49' E 014°19'0 0.0
2017-Dec-15 09:44N 40°49' E 014°19'0 0.0
2017-Dec-15 09:26N 40°49' E 014°19'0 0.0
2017-Dec-14 13:35N 40°49' E 014°19'0 0.0
2017-Dec-13 16:38N 40°49' E 014°19'0 0.0
2017-Dec-13 16:14N 40°49' E 014°19'0 0.0
2017-Dec-13 15:59N 40°49' E 014°19'0 0.0
2017-Dec-13 15:14N 40°49' E 014°19'0 0.0
2017-Dec-13 13:41N 40°49' E 014°19'0 0.0
2017-Dec-13 13:17N 40°49' E 014°19'0 0.1
2017-Dec-13 12:59N 40°49' E 014°19'0 0.0
2017-Dec-13 11:32N 40°49' E 014°19'0 0.1
2017-Dec-13 11:14N 40°49' E 014°19'0 0.0
2017-Dec-13 10:59N 40°49' E 014°19'0 0.0
2017-Dec-13 10:29N 40°49' E 014°19'0 0.1
2017-Dec-13 09:50N 40°49' E 014°19'1 2.8
2017-Dec-13 09:30N 40°48' E 014°19'4 7.4
2017-Dec-13 09:00N 40°45' E 014°23'3 6.4
2017-Dec-13 08:30N 40°45' E 014°27'0 0.0
2017-Dec-12 15:16N 40°45' E 014°27'1 3.3
2017-Dec-12 14:52N 40°44' E 014°27'1 1.8
2017-Dec-12 14:30N 40°44' E 014°26'0 0.0
2017-Dec-12 10:41N 40°44' E 014°26'0 0.0
2017-Dec-12 10:23N 40°44' E 014°26'0 0.0
2017-Dec-12 09:29N 40°44' E 014°26'0 0.0
2017-Dec-12 08:59N 40°44' E 014°26'1 1.2
2017-Dec-12 08:30N 40°44' E 014°26'3 6.5
2017-Dec-12 08:00N 40°45' E 014°22'510.6
2017-Dec-12 07:30N 40°49' E 014°17'1 0.0
2017-Dec-11 08:41N 40°50' E 014°17'2 4.7
2017-Dec-11 08:22N 40°49' E 014°17'1 3.6
2017-Dec-11 08:00N 40°48' E 014°18'1 1.0
2017-Dec-11 07:30N 40°48' E 014°18'25312.0
2017-Dec-10 10:25N 38°53' E 009°25'512.3
2017-Dec-10 09:59N 38°51' E 009°18'712.6
2017-Dec-10 09:27N 38°48' E 009°11'1312.8
2017-Dec-10 08:28N 38°45' E 008°55'612.6
2017-Dec-10 07:59N 38°44' E 008°47'612.5
2017-Dec-10 07:30N 38°43' E 008°40'41911.7
2017-Dec-08 19:34N 37°34' W 000°06'111.8
2017-Dec-08 19:31N 37°33' W 000°07'611.8
2017-Dec-08 19:01N 37°32' W 000°14'612.0
2017-Dec-08 18:31N 37°31' W 000°21'612.1
2017-Dec-08 18:00N 37°30' W 000°29'612.0
2017-Dec-08 17:30N 37°30' W 000°36'612.5
2017-Dec-08 17:00N 37°31' W 000°44'713.0
2017-Dec-08 16:29N 37°31' W 000°53'  
Track history (hours):
 
Tides and Currents Weather Stations Pressure Air Temp Water Temp Dewpoint Dewpoint Depression Visibility Wind Speed Wind Dir Waves Ship Positions

Autumn

Last reported at 2017-Dec-15 19:44 UTC. Time now 2017-Dec-15 20:08 UTC.
Position N 40°49' E 014°19'.

Length 129 m; draft 5.5 m.

Type: Tanker. MMSI: 538003323.

Date/timePositionNaut miles runAvg speedWind from/ knotsBaromVisibWave heightAir tempDewpointWater temp
2017-Dec-15 19:44N 40°49' E 014°19'0 0.0
2017-Dec-15 19:29N 40°49' E 014°19'0 0.0
2017-Dec-15 18:14N 40°49' E 014°19'0 0.0
2017-Dec-15 17:17N 40°49' E 014°19'0 0.0
2017-Dec-15 16:50N 40°49' E 014°19'0 0.0
2017-Dec-15 16:17N 40°49' E 014°19'0 0.0
2017-Dec-15 15:50N 40°49' E 014°19'0 0.0
2017-Dec-15 15:23N 40°49' E 014°19'0 0.0
2017-Dec-15 14:50N 40°49' E 014°19'0 0.0
2017-Dec-15 14:23N 40°49' E 014°19'0 0.0
2017-Dec-15 13:50N 40°49' E 014°19'0 0.0
2017-Dec-15 13:26N 40°49' E 014°19'0 0.1
2017-Dec-15 12:56N 40°49' E 014°19'0 0.0
2017-Dec-15 10:44N 40°49' E 014°19'0 0.0
2017-Dec-15 10:26N 40°49' E 014°19'0 0.0
2017-Dec-15 09:44N 40°49' E 014°19'0 0.0
2017-Dec-15 09:26N 40°49' E 014°19'0 0.0
2017-Dec-14 13:35N 40°49' E 014°19'0 0.0
2017-Dec-13 16:38N 40°49' E 014°19'0 0.0
2017-Dec-13 16:14N 40°49' E 014°19'0 0.0
2017-Dec-13 15:59N 40°49' E 014°19'0 0.0
2017-Dec-13 15:14N 40°49' E 014°19'0 0.0
2017-Dec-13 13:41N 40°49' E 014°19'0 0.0
2017-Dec-13 13:17N 40°49' E 014°19'0 0.1
2017-Dec-13 12:59N 40°49' E 014°19'0 0.0
2017-Dec-13 11:32N 40°49' E 014°19'0 0.1
2017-Dec-13 11:14N 40°49' E 014°19'0 0.0
2017-Dec-13 10:59N 40°49' E 014°19'0 0.0
2017-Dec-13 10:29N 40°49' E 014°19'0 0.1
2017-Dec-13 09:50N 40°49' E 014°19'1 2.8
2017-Dec-13 09:30N 40°48' E 014°19'4 7.4
2017-Dec-13 09:00N 40°45' E 014°23'3 6.4
2017-Dec-13 08:30N 40°45' E 014°27'0 0.0
2017-Dec-12 15:16N 40°45' E 014°27'1 3.3
2017-Dec-12 14:52N 40°44' E 014°27'1 1.8
2017-Dec-12 14:30N 40°44' E 014°26'0 0.0
2017-Dec-12 10:41N 40°44' E 014°26'0 0.0
2017-Dec-12 10:23N 40°44' E 014°26'0 0.0
2017-Dec-12 09:29N 40°44' E 014°26'0 0.0
2017-Dec-12 08:59N 40°44' E 014°26'1 1.2
2017-Dec-12 08:30N 40°44' E 014°26'3 6.5
2017-Dec-12 08:00N 40°45' E 014°22'510.6
2017-Dec-12 07:30N 40°49' E 014°17'1 0.0
2017-Dec-11 08:41N 40°50' E 014°17'2 4.7
2017-Dec-11 08:22N 40°49' E 014°17'1 3.6
2017-Dec-11 08:00N 40°48' E 014°18'1 1.0
2017-Dec-11 07:30N 40°48' E 014°18'25312.0
2017-Dec-10 10:25N 38°53' E 009°25'512.3
2017-Dec-10 09:59N 38°51' E 009°18'712.6
2017-Dec-10 09:27N 38°48' E 009°11'1312.8
2017-Dec-10 08:28N 38°45' E 008°55'612.6
2017-Dec-10 07:59N 38°44' E 008°47'612.5
2017-Dec-10 07:30N 38°43' E 008°40'41911.7
2017-Dec-08 19:34N 37°34' W 000°06'111.8
2017-Dec-08 19:31N 37°33' W 000°07'611.8
2017-Dec-08 19:01N 37°32' W 000°14'612.0
2017-Dec-08 18:31N 37°31' W 000°21'612.1
2017-Dec-08 18:00N 37°30' W 000°29'612.0
2017-Dec-08 17:30N 37°30' W 000°36'612.5
2017-Dec-08 17:00N 37°31' W 000°44'713.0
2017-Dec-08 16:29N 37°31' W 000°53'  

Dump ship's entire track history